Time;durP1;ratioP1;P1;durP2;ratioP2;P2;SDS_P1;SDS_P2;PMS_P1;PMS_P2;Temp;Humidity;BMP_temperature;BMP_pressure;BME280_temperature;BME280_humidity;BME280_pressure;Samples;Min_cycle;Max_cycle;Signal;HPM_P1;HPM_P2
2022/01/08 00:00:27;;;;;;;3.00;2.57;;;12.90;55.30;;;;;;5098977;28;20525;-79
2022/01/08 00:02:56;;;;;;;2.70;2.47;;;12.90;55.30;;;;;;5117769;28;20440;-80
2022/01/08 00:05:25;;;;;;;2.40;2.20;;;12.80;55.20;;;;;;5117804;28;20548;-80
2022/01/08 00:07:52;;;;;;;2.93;2.73;;;12.90;55.30;;;;;;5118524;28;20485;-80
2022/01/08 00:10:21;;;;;;;4.17;2.93;;;12.80;55.20;;;;;;5117108;28;20479;-79
2022/01/08 00:12:50;;;;;;;3.10;2.70;;;12.90;55.30;;;;;;5113286;28;20543;-80
2022/01/08 00:15:19;;;;;;;2.90;2.50;;;12.80;55.20;;;;;;5117814;28;20531;-81
2022/01/08 00:17:46;;;;;;;2.83;2.40;;;12.90;55.30;;;;;;5118547;28;20455;-80
2022/01/08 00:20:17;;;;;;;3.93;2.93;;;12.80;55.20;;;;;;5117381;28;20523;-80
2022/01/08 00:22:45;;;;;;;2.30;2.10;;;12.80;55.20;;;;;;5118680;28;20463;-80
2022/01/08 00:25:13;;;;;;;2.90;2.70;;;12.90;55.30;;;;;;5116544;28;20476;-80
2022/01/08 00:27:41;;;;;;;3.33;3.03;;;12.90;55.40;;;;;;5118103;28;20513;-80
2022/01/08 00:30:09;;;;;;;2.73;2.53;;;12.90;55.90;;;;;;5113751;28;20524;-81
2022/01/08 00:32:38;;;;;;;8.30;2.73;;;12.90;55.30;;;;;;5117643;28;20531;-80
2022/01/08 00:35:08;;;;;;;3.07;2.80;;;12.90;55.40;;;;;;5116607;28;20537;-80
2022/01/08 00:37:38;;;;;;;3.33;2.93;;;12.80;55.10;;;;;;5116473;28;20503;-80
2022/01/08 00:40:07;;;;;;;6.07;2.67;;;12.80;55.00;;;;;;5119928;28;20440;-81
2022/01/08 00:42:35;;;;;;;2.80;2.57;;;12.80;55.10;;;;;;5116022;28;20462;-80
2022/01/08 00:45:03;;;;;;;2.50;2.30;;;12.80;55.00;;;;;;5117329;28;20554;-81
2022/01/08 00:47:31;;;;;;;3.00;2.80;;;12.80;54.90;;;;;;5117865;28;20452;-81
2022/01/08 00:49:59;;;;;;;2.90;2.50;;;12.80;55.00;;;;;;5116409;28;20530;-79
2022/01/08 00:52:27;;;;;;;2.97;2.77;;;12.80;55.00;;;;;;5116097;28;20429;-80
2022/01/08 00:54:56;;;;;;;3.53;3.00;;;12.80;54.80;;;;;;5116105;28;20494;-80
2022/01/08 00:57:24;;;;;;;3.10;2.90;;;12.70;54.90;;;;;;5115272;28;20459;-80
2022/01/08 00:59:52;;;;;;;3.53;2.93;;;12.70;54.80;;;;;;5114315;28;20447;-80
2022/01/08 01:02:19;;;;;;;3.00;2.80;;;12.70;54.80;;;;;;5112726;28;20553;-81
2022/01/08 01:04:48;;;;;;;3.93;3.37;;;12.70;54.70;;;;;;5113533;28;20471;-80
2022/01/08 01:07:16;;;;;;;3.23;2.97;;;12.70;54.70;;;;;;5107658;28;20460;-80
2022/01/08 01:09:44;;;;;;;2.97;2.67;;;12.70;54.60;;;;;;5113808;28;20454;-80
2022/01/08 01:12:13;;;;;;;3.57;2.80;;;12.80;54.80;;;;;;5095208;28;20543;-81
2022/01/08 01:15:01;;;;;;;4.20;2.87;;;12.80;54.80;;;;;;5095636;28;20445;-80
2022/01/08 01:17:28;;;;;;;4.20;2.73;;;12.80;54.70;;;;;;5108988;28;20526;-80
2022/01/08 01:19:56;;;;;;;3.13;2.73;;;12.80;54.90;;;;;;5115636;28;20439;-80
2022/01/08 01:22:29;;;;;;;3.00;2.70;;;12.80;54.90;;;;;;5113489;28;20452;-79
2022/01/08 01:25:03;;;;;;;3.77;3.30;;;12.80;54.90;;;;;;5107381;28;20563;-79
2022/01/08 01:27:56;;;;;;;3.40;3.10;;;12.80;55.00;;;;;;5115602;28;20984;-80
2022/01/08 01:30:40;;;;;;;5.03;2.60;;;12.80;55.00;;;;;;5108617;28;20519;-80
2022/01/08 01:41:35;;;;;;;3.03;2.83;;;12.90;55.40;;;;;;5112475;28;20558;-80
2022/01/08 01:47:01;;;;;;;4.03;2.80;;;12.90;55.50;;;;;;5114735;28;20509;-80
2022/01/08 01:49:30;;;;;;;3.13;2.83;;;12.80;55.40;;;;;;5116771;28;20427;-80
2022/01/08 01:51:59;;;;;;;2.90;2.70;;;12.80;55.50;;;;;;5115226;28;20538;-80
2022/01/08 01:54:27;;;;;;;4.80;3.30;;;12.80;55.50;;;;;;5116599;28;21048;-80
2022/01/08 01:56:55;;;;;;;3.07;2.87;;;12.80;55.60;;;;;;5116871;28;20440;-80
2022/01/08 01:59:24;;;;;;;2.83;2.60;;;12.80;55.40;;;;;;5110951;28;20556;-80
2022/01/08 02:01:52;;;;;;;3.63;3.30;;;12.80;55.50;;;;;;5108281;28;20523;-80
2022/01/08 02:04:20;;;;;;;3.63;3.33;;;12.80;55.40;;;;;;5115900;27;20515;-80
2022/01/08 02:06:48;;;;;;;2.67;2.47;;;12.80;55.40;;;;;;5117005;28;20467;-80
2022/01/08 02:09:16;;;;;;;3.00;2.70;;;12.80;55.50;;;;;;5116189;28;20475;-80
2022/01/08 02:11:57;;;;;;;3.20;2.77;;;12.70;55.40;;;;;;5116161;28;20499;-81
2022/01/08 02:14:26;;;;;;;4.50;2.57;;;12.70;55.40;;;;;;5116829;28;20550;-81
2022/01/08 02:16:54;;;;;;;3.30;3.00;;;12.70;55.50;;;;;;5109929;28;20510;-80
2022/01/08 02:19:22;;;;;;;2.50;2.30;;;12.70;55.50;;;;;;5116354;28;20474;-81
2022/01/08 02:21:53;;;;;;;8.40;2.80;;;12.70;55.50;;;;;;5116322;28;20434;-80
2022/01/08 02:24:21;;;;;;;2.87;2.67;;;12.70;55.50;;;;;;5115904;28;20515;-80
2022/01/08 02:26:49;;;;;;;3.40;3.10;;;12.70;55.50;;;;;;5116964;28;20471;-81
2022/01/08 02:29:17;;;;;;;2.67;2.47;;;12.70;55.50;;;;;;5115883;28;20546;-81
2022/01/08 02:31:53;;;;;;;3.00;2.80;;;12.60;55.40;;;;;;5111692;28;20543;-81
2022/01/08 02:34:20;;;;;;;2.90;2.67;;;12.60;55.40;;;;;;5105114;28;20538;-81
2022/01/08 02:36:48;;;;;;;3.23;2.60;;;12.60;55.30;;;;;;5111774;28;20531;-80
2022/01/08 02:39:18;;;;;;;4.00;2.80;;;12.60;55.30;;;;;;5115881;28;20424;-81
2022/01/08 02:41:46;;;;;;;2.50;2.30;;;12.60;55.30;;;;;;5112774;28;20543;-80
2022/01/08 02:44:14;;;;;;;2.60;2.40;;;12.60;55.30;;;;;;5110633;28;20516;-80
2022/01/08 02:46:42;;;;;;;2.90;2.70;;;12.60;55.30;;;;;;5116943;28;20558;-81
2022/01/08 02:49:10;;;;;;;2.90;2.70;;;12.50;55.20;;;;;;5116147;28;20950;-78
2022/01/08 02:51:38;;;;;;;2.57;2.40;;;12.50;55.20;;;;;;5110906;28;20448;-79
2022/01/08 02:54:08;;;;;;;2.80;2.60;;;12.50;55.20;;;;;;5118050;28;20522;-79
2022/01/08 02:56:39;;;;;;;2.50;2.30;;;12.50;55.20;;;;;;5117751;28;20452;-79
2022/01/08 02:59:07;;;;;;;4.00;2.50;;;12.50;55.10;;;;;;5117872;28;20446;-79
2022/01/08 03:01:35;;;;;;;2.60;2.40;;;12.50;55.10;;;;;;5117997;28;20837;-79
2022/01/08 03:04:04;;;;;;;2.40;2.30;;;12.50;55.10;;;;;;5118099;28;20499;-79
2022/01/08 03:06:32;;;;;;;3.10;2.87;;;12.50;55.10;;;;;;5119195;28;20455;-79
2022/01/08 03:09:00;;;;;;;4.27;2.80;;;12.40;55.20;;;;;;5115413;28;20547;-79
2022/01/08 03:11:28;;;;;;;2.53;2.40;;;12.50;55.30;;;;;;5119841;28;20476;-79
2022/01/08 03:13:57;;;;;;;3.03;2.70;;;12.50;55.10;;;;;;5120450;28;20436;-79
2022/01/08 03:16:25;;;;;;;2.73;2.33;;;12.50;55.10;;;;;;5119456;28;20507;-79
2022/01/08 03:18:53;;;;;;;2.63;2.43;;;12.40;55.00;;;;;;5119857;28;20428;-78
2022/01/08 03:21:22;;;;;;;3.70;2.47;;;12.50;55.20;;;;;;5114052;28;20448;-78
2022/01/08 03:23:55;;;;;;;3.57;2.80;;;12.50;55.20;;;;;;5118952;28;20447;-79
2022/01/08 03:26:24;;;;;;;3.57;2.73;;;12.50;55.20;;;;;;5115596;28;20471;-78
2022/01/08 03:28:52;;;;;;;5.13;2.63;;;12.60;55.20;;;;;;5119395;28;20516;-78
2022/01/08 03:31:22;;;;;;;2.40;2.20;;;12.60;55.20;;;;;;5116561;28;20479;-79
2022/01/08 03:33:50;;;;;;;2.07;1.97;;;12.60;55.10;;;;;;5120128;28;20460;-79
2022/01/08 03:36:21;;;;;;;2.70;2.50;;;12.60;55.20;;;;;;5119729;28;20464;-79
2022/01/08 03:38:49;;;;;;;2.23;2.03;;;12.60;55.80;;;;;;5119707;28;20496;-78
2022/01/08 03:41:17;;;;;;;3.80;2.77;;;12.60;55.20;;;;;;5109962;28;20519;-79
2022/01/08 03:43:45;;;;;;;2.90;2.60;;;12.60;55.30;;;;;;5118517;28;20548;-79
2022/01/08 03:46:13;;;;;;;2.73;2.53;;;12.50;55.20;;;;;;5118890;28;20475;-79
2022/01/08 03:48:47;;;;;;;3.37;2.77;;;12.50;55.30;;;;;;5118523;28;20459;-78
2022/01/08 03:51:15;;;;;;;4.80;2.47;;;12.50;55.40;;;;;;5118648;28;20534;-79
2022/01/08 03:53:44;;;;;;;2.93;2.67;;;12.50;55.40;;;;;;5119114;28;20482;-79
2022/01/08 03:56:12;;;;;;;2.53;2.33;;;12.50;55.30;;;;;;5117606;28;20474;-79
2022/01/08 03:58:39;;;;;;;2.57;2.37;;;12.50;55.20;;;;;;5112584;28;20529;-79
2022/01/08 04:01:07;;;;;;;2.83;2.53;;;12.50;55.30;;;;;;5118909;28;20900;-79
2022/01/08 04:03:35;;;;;;;4.30;2.63;;;12.50;55.20;;;;;;5118745;28;20476;-79
2022/01/08 04:06:05;;;;;;;3.37;2.27;;;12.40;55.10;;;;;;5119906;28;20467;-78
2022/01/08 04:08:32;;;;;;;2.80;2.60;;;12.40;55.20;;;;;;5120671;28;20897;-79
2022/01/08 04:11:01;;;;;;;3.20;2.90;;;12.40;55.20;;;;;;5121134;28;21025;-78
2022/01/08 04:13:33;;;;;;;2.80;2.60;;;12.40;55.10;;;;;;5120572;28;20452;-79
2022/01/08 04:16:09;;;;;;;3.60;2.70;;;12.40;55.20;;;;;;5118361;28;20551;-79
2022/01/08 04:18:37;;;;;;;3.83;3.20;;;12.30;55.00;;;;;;5118682;28;20459;-78
2022/01/08 04:21:28;;;;;;;2.80;2.60;;;12.30;54.90;;;;;;5118538;28;20444;-78
2022/01/08 04:23:58;;;;;;;3.10;2.80;;;12.40;55.00;;;;;;5120748;28;20463;-78
2022/01/08 04:26:27;;;;;;;2.90;2.70;;;12.30;54.80;;;;;;5118319;28;20467;-78
2022/01/08 04:28:55;;;;;;;4.00;2.63;;;12.30;54.80;;;;;;5117441;28;20432;-78
2022/01/08 04:31:24;;;;;;;2.80;2.60;;;12.30;55.00;;;;;;5112013;28;20494;-78
2022/01/08 04:33:51;;;;;;;4.33;3.30;;;12.30;54.90;;;;;;5117661;28;20491;-79
2022/01/08 04:36:21;;;;;;;3.30;3.00;;;12.30;55.00;;;;;;5118550;28;20530;-79
2022/01/08 04:38:49;;;;;;;3.03;2.83;;;12.30;55.00;;;;;;5118582;28;20575;-79
2022/01/08 04:41:16;;;;;;;3.63;2.67;;;12.30;55.00;;;;;;5117373;28;20943;-79
2022/01/08 04:43:44;;;;;;;3.00;2.80;;;12.30;55.00;;;;;;5117026;27;20478;-79
2022/01/08 04:46:12;;;;;;;3.70;3.30;;;12.30;54.80;;;;;;5117157;28;20486;-79
2022/01/08 04:48:40;;;;;;;3.30;3.00;;;12.30;54.90;;;;;;5114000;28;20499;-79
2022/01/08 04:51:08;;;;;;;3.20;2.90;;;12.30;55.00;;;;;;5117391;28;20466;-79
2022/01/08 04:53:37;;;;;;;3.73;3.00;;;12.40;54.90;;;;;;5118214;28;20538;-78
2022/01/08 04:56:06;;;;;;;3.87;3.03;;;12.40;55.00;;;;;;5117797;28;20546;-79
2022/01/08 04:58:33;;;;;;;3.03;2.83;;;12.40;55.00;;;;;;5117084;28;20526;-78
2022/01/08 05:01:01;;;;;;;4.10;2.83;;;12.40;55.00;;;;;;5111149;28;20481;-79
2022/01/08 05:03:29;;;;;;;3.50;3.20;;;12.40;55.20;;;;;;5113927;28;20443;-79
2022/01/08 05:05:57;;;;;;;4.50;3.33;;;12.40;55.20;;;;;;5108184;28;20504;-78
2022/01/08 05:08:25;;;;;;;2.87;2.67;;;12.40;55.20;;;;;;5115130;28;20466;-79
2022/01/08 05:10:54;;;;;;;5.43;3.37;;;12.40;55.20;;;;;;5095539;28;20535;-79
2022/01/08 05:13:22;;;;;;;3.90;3.27;;;12.50;55.20;;;;;;5095226;28;20531;-79
2022/01/08 05:15:50;;;;;;;5.03;3.23;;;12.50;55.20;;;;;;5096210;28;20543;-79
2022/01/08 05:18:18;;;;;;;4.97;3.10;;;12.50;55.30;;;;;;5096536;28;20464;-79
2022/01/08 05:20:55;;;;;;;4.20;3.10;;;12.50;55.20;;;;;;5096298;28;20496;-79
2022/01/08 05:23:23;;;;;;;3.17;2.87;;;12.40;55.20;;;;;;5103874;28;20508;-79
2022/01/08 05:25:53;;;;;;;3.80;3.20;;;12.40;55.30;;;;;;5108151;28;20550;-78
2022/01/08 05:28:22;;;;;;;4.53;2.80;;;12.40;55.30;;;;;;5116047;28;20439;-79
2022/01/08 05:30:49;;;;;;;3.30;3.10;;;12.40;55.30;;;;;;5116125;28;20464;-78
2022/01/08 05:33:18;;;;;;;3.83;2.60;;;12.40;55.40;;;;;;5115092;28;21018;-78
2022/01/08 05:35:45;;;;;;;3.10;2.80;;;12.40;55.40;;;;;;5116352;28;20542;-79
2022/01/08 05:38:14;;;;;;;4.57;2.93;;;12.40;55.30;;;;;;5116088;28;20524;-79
2022/01/08 05:40:42;;;;;;;2.93;2.70;;;12.40;55.30;;;;;;5107853;28;20535;-79
2022/01/08 05:43:09;;;;;;;6.10;3.30;;;12.40;55.20;;;;;;5116163;28;20515;-78
2022/01/08 05:45:39;;;;;;;3.37;3.07;;;12.40;55.20;;;;;;5116019;28;20547;-79
2022/01/08 05:48:08;;;;;;;3.80;3.10;;;12.40;55.30;;;;;;5116465;28;20472;-79
2022/01/08 05:50:36;;;;;;;3.30;3.00;;;12.40;55.40;;;;;;5117174;28;20463;-79
2022/01/08 05:53:04;;;;;;;3.83;3.30;;;12.40;55.20;;;;;;5116918;28;20523;-79
2022/01/08 05:55:32;;;;;;;3.80;3.40;;;12.40;55.30;;;;;;5117127;28;20491;-79
2022/01/08 05:58:00;;;;;;;6.40;3.40;;;12.40;55.40;;;;;;5110581;28;20486;-79
2022/01/08 06:00:28;;;;;;;3.93;2.90;;;12.30;55.10;;;;;;5117118;28;20534;-79
2022/01/08 06:02:57;;;;;;;3.47;3.10;;;12.40;55.20;;;;;;5117571;28;20442;-79
2022/01/08 06:05:25;;;;;;;3.10;2.80;;;12.40;55.30;;;;;;5116366;28;20452;-79
2022/01/08 06:07:53;;;;;;;3.03;2.83;;;12.30;55.20;;;;;;5116295;28;20527;-79
2022/01/08 06:10:21;;;;;;;2.97;2.77;;;12.30;55.30;;;;;;5116000;28;20523;-79
2022/01/08 06:12:52;;;;;;;3.03;2.83;;;12.30;55.20;;;;;;5117679;28;20509;-79
2022/01/08 06:15:21;;;;;;;2.80;2.60;;;12.40;55.30;;;;;;5108584;28;20539;-79
2022/01/08 06:17:53;;;;;;;3.63;3.30;;;12.30;55.20;;;;;;5096314;28;20425;-79
2022/01/08 06:20:23;;;;;;;3.53;3.23;;;12.30;55.20;;;;;;5096397;28;20470;-79
2022/01/08 06:22:51;;;;;;;4.30;3.47;;;12.30;55.20;;;;;;5096809;28;20594;-79
2022/01/08 06:25:19;;;;;;;3.83;3.07;;;12.30;55.30;;;;;;5097392;28;20524;-79
2022/01/08 06:27:47;;;;;;;2.83;2.53;;;12.30;55.40;;;;;;5099816;28;20541;-79
2022/01/08 06:30:15;;;;;;;3.10;2.90;;;12.30;55.20;;;;;;5099602;28;20500;-80
2022/01/08 06:32:43;;;;;;;3.00;2.80;;;12.30;55.20;;;;;;5102837;28;20516;-79
2022/01/08 06:35:11;;;;;;;3.47;2.77;;;12.30;55.30;;;;;;5116489;28;20456;-79
2022/01/08 06:37:40;;;;;;;3.90;3.10;;;12.20;55.20;;;;;;5113007;28;20519;-79
2022/01/08 06:40:10;;;;;;;4.50;2.63;;;12.30;55.30;;;;;;5112743;28;21006;-80
2022/01/08 06:42:38;;;;;;;2.50;2.37;;;12.20;55.30;;;;;;5112029;28;20475;-80
2022/01/08 06:45:06;;;;;;;2.60;2.40;;;12.20;55.20;;;;;;5112375;28;20455;-79
2022/01/08 06:47:35;;;;;;;3.10;2.80;;;12.20;55.30;;;;;;5111962;28;20514;-80
2022/01/08 06:50:03;;;;;;;4.20;2.60;;;12.30;55.30;;;;;;5109997;28;20452;-79
2022/01/08 06:52:30;;;;;;;2.90;2.70;;;12.30;55.40;;;;;;5111136;28;20539;-79
2022/01/08 06:55:00;;;;;;;2.87;2.67;;;12.30;55.30;;;;;;5112551;28;20498;-80
2022/01/08 06:57:28;;;;;;;3.53;2.40;;;12.30;55.10;;;;;;5112058;28;20503;-79
2022/01/08 06:59:56;;;;;;;2.87;2.67;;;12.20;55.10;;;;;;5111986;28;20975;-79
2022/01/08 07:02:24;;;;;;;3.03;2.80;;;12.20;55.30;;;;;;5112393;28;20467;-79
2022/01/08 07:04:52;;;;;;;5.20;2.90;;;12.20;55.20;;;;;;5111902;28;20456;-79
2022/01/08 07:07:20;;;;;;;3.20;2.40;;;12.20;55.10;;;;;;5104451;28;20572;-79
2022/01/08 07:09:48;;;;;;;2.77;2.57;;;12.20;55.20;;;;;;5111437;28;20444;-79
2022/01/08 07:12:17;;;;;;;3.13;2.87;;;12.20;55.10;;;;;;5111637;28;20597;-79
2022/01/08 07:14:45;;;;;;;3.50;2.60;;;12.20;55.30;;;;;;5111845;28;20550;-79
2022/01/08 07:17:13;;;;;;;3.77;2.60;;;12.20;55.40;;;;;;5112003;28;20527;-80
2022/01/08 07:19:41;;;;;;;3.40;2.80;;;12.20;55.30;;;;;;5112175;28;20479;-79
2022/01/08 07:22:09;;;;;;;3.30;2.50;;;12.20;55.20;;;;;;5109871;28;20477;-79
2022/01/08 07:24:37;;;;;;;3.00;2.80;;;12.20;55.30;;;;;;5104902;28;20578;-79
2022/01/08 07:27:05;;;;;;;2.67;2.47;;;12.20;55.20;;;;;;5111592;28;20436;-79
2022/01/08 07:29:34;;;;;;;2.80;2.50;;;12.10;55.00;;;;;;5115104;28;20519;-80
2022/01/08 07:32:02;;;;;;;2.73;2.53;;;12.20;55.10;;;;;;5110692;28;20450;-80
2022/01/08 07:34:30;;;;;;;3.17;2.83;;;12.10;54.90;;;;;;5115554;28;20482;-80
2022/01/08 07:36:58;;;;;;;3.00;2.80;;;12.10;54.90;;;;;;5095137;28;20524;-80
2022/01/08 07:39:26;;;;;;;3.13;2.93;;;12.10;55.00;;;;;;5106428;28;20454;-79
2022/01/08 07:41:54;;;;;;;2.87;2.67;;;12.10;55.00;;;;;;5111763;28;20457;-80
2022/01/08 07:44:22;;;;;;;3.30;3.00;;;12.10;55.00;;;;;;5114542;28;20567;-80
2022/01/08 07:46:52;;;;;;;4.00;3.00;;;12.00;54.90;;;;;;5112815;28;20514;-79
2022/01/08 07:49:20;;;;;;;2.40;2.20;;;12.10;54.90;;;;;;5115283;28;20467;-79
2022/01/08 07:51:49;;;;;;;3.13;2.80;;;12.00;54.80;;;;;;5115155;28;20534;-79
2022/01/08 07:54:16;;;;;;;2.83;2.70;;;12.10;54.90;;;;;;5115303;28;20439;-79
2022/01/08 07:56:44;;;;;;;2.70;2.50;;;12.10;54.90;;;;;;5111368;28;20448;-79
2022/01/08 07:59:12;;;;;;;2.73;2.53;;;12.10;54.90;;;;;;5109515;28;20528;-80
2022/01/08 08:01:40;;;;;;;3.53;3.20;;;12.10;54.80;;;;;;5114866;28;20443;-79
2022/01/08 08:04:09;;;;;;;3.00;2.67;;;12.10;54.80;;;;;;5114555;28;20446;-79
2022/01/08 08:06:43;;;;;;;4.00;3.30;;;12.10;54.80;;;;;;5115084;28;20788;-80
2022/01/08 08:09:11;;;;;;;2.63;2.43;;;12.10;54.70;;;;;;5114528;28;20502;-79
2022/01/08 08:11:39;;;;;;;3.70;2.90;;;12.00;54.70;;;;;;5114354;28;20515;-79
2022/01/08 08:14:07;;;;;;;3.60;3.27;;;12.10;54.80;;;;;;5111608;28;20528;-80
2022/01/08 08:16:34;;;;;;;3.10;2.77;;;12.10;54.80;;;;;;5111663;28;20564;-79
2022/01/08 08:19:03;;;;;;;3.50;2.97;;;12.10;54.70;;;;;;5116842;28;20463;-79
2022/01/08 08:21:32;;;;;;;4.07;3.20;;;12.10;54.70;;;;;;5118142;28;20973;-79
2022/01/08 08:24:03;;;;;;;3.47;3.10;;;12.10;54.70;;;;;;5118431;28;20491;-80
2022/01/08 08:26:31;;;;;;;2.93;2.70;;;12.20;54.60;;;;;;5118740;28;20456;-79
2022/01/08 08:28:59;;;;;;;3.47;2.50;;;12.20;54.80;;;;;;5118642;28;20559;-79
2022/01/08 08:31:27;;;;;;;2.70;2.50;;;12.20;54.50;;;;;;5118516;28;20468;-79
2022/01/08 08:33:55;;;;;;;3.07;2.87;;;12.20;54.50;;;;;;5114919;28;20455;-80
2022/01/08 08:36:23;;;;;;;2.90;2.60;;;12.30;54.70;;;;;;5117720;28;20472;-79
2022/01/08 08:38:52;;;;;;;3.47;3.17;;;12.30;54.50;;;;;;5118367;28;20540;-78
2022/01/08 08:41:20;;;;;;;3.50;3.20;;;12.30;54.50;;;;;;5097069;28;20440;-78
2022/01/08 08:43:48;;;;;;;3.60;3.10;;;12.40;54.50;;;;;;5097881;28;20475;-78
2022/01/08 08:46:16;;;;;;;3.33;3.00;;;12.50;54.40;;;;;;5098177;28;20449;-78
2022/01/08 08:48:44;;;;;;;3.70;3.33;;;12.60;54.50;;;;;;5098509;28;20504;-78
2022/01/08 08:51:13;;;;;;;4.87;3.13;;;12.70;54.60;;;;;;5109336;28;20456;-79
2022/01/08 08:53:41;;;;;;;5.20;3.60;;;12.80;54.70;;;;;;5118377;28;20930;-79
2022/01/08 08:56:11;;;;;;;3.53;3.10;;;13.00;54.70;;;;;;5118171;28;20556;-78
2022/01/08 08:58:38;;;;;;;4.47;3.30;;;13.10;54.80;;;;;;5117544;28;20527;-79
2022/01/08 09:01:07;;;;;;;4.10;3.10;;;13.30;54.90;;;;;;5118247;28;20505;-78
2022/01/08 09:03:35;;;;;;;4.13;3.50;;;13.50;54.90;;;;;;5117410;28;20432;-79
2022/01/08 09:06:03;;;;;;;4.00;3.50;;;13.60;55.20;;;;;;5115004;28;20473;-79
2022/01/08 09:08:31;;;;;;;6.70;3.33;;;13.80;54.90;;;;;;5116900;28;20496;-79
2022/01/08 09:10:59;;;;;;;3.67;3.37;;;14.00;54.80;;;;;;5117993;28;20550;-79
2022/01/08 09:13:28;;;;;;;3.53;3.23;;;14.00;54.70;;;;;;5118039;28;20447;-79
2022/01/08 09:15:56;;;;;;;3.40;3.20;;;14.00;54.50;;;;;;5115062;27;20447;-78
2022/01/08 09:18:24;;;;;;;4.07;3.67;;;14.10;54.70;;;;;;5113630;28;20527;-78
2022/01/08 09:20:53;;;;;;;3.67;3.37;;;14.10;54.80;;;;;;5113144;28;20476;-78
2022/01/08 09:23:21;;;;;;;3.60;3.30;;;14.10;54.80;;;;;;5106048;28;20457;-78
2022/01/08 09:25:49;;;;;;;3.80;3.33;;;14.10;54.80;;;;;;5112830;28;20490;-79
2022/01/08 09:28:18;;;;;;;5.40;3.97;;;14.10;55.00;;;;;;5113265;28;20511;-78
2022/01/08 09:30:47;;;;;;;3.53;3.23;;;14.20;55.20;;;;;;5113089;28;20526;-79
2022/01/08 09:33:16;;;;;;;3.77;3.47;;;14.20;55.30;;;;;;5113218;28;20435;-78
2022/01/08 09:35:44;;;;;;;4.23;3.50;;;14.30;55.40;;;;;;5112500;28;20448;-78
2022/01/08 09:38:11;;;;;;;4.00;3.60;;;14.40;55.50;;;;;;5112356;28;21014;-78
2022/01/08 09:40:39;;;;;;;3.30;3.10;;;14.40;55.40;;;;;;5113514;28;20523;-80
2022/01/08 09:43:07;;;;;;;4.47;4.07;;;14.50;55.30;;;;;;5110873;28;20539;-78
2022/01/08 09:45:35;;;;;;;7.80;3.77;;;14.50;55.20;;;;;;5113020;28;20539;-79
2022/01/08 09:48:05;;;;;;;4.73;3.57;;;14.50;55.10;;;;;;5113358;28;20464;-78
2022/01/08 09:50:33;;;;;;;3.93;3.53;;;14.60;55.40;;;;;;5112191;28;20468;-79
2022/01/08 09:53:01;;;;;;;3.83;3.53;;;14.70;55.30;;;;;;5098119;28;20519;-81
2022/01/08 09:55:30;;;;;;;6.17;3.97;;;14.70;55.40;;;;;;5112404;28;20507;-79
2022/01/08 09:57:58;;;;;;;6.03;3.87;;;14.80;55.50;;;;;;5112871;28;20548;-79
2022/01/08 10:00:26;;;;;;;3.70;3.40;;;14.90;55.40;;;;;;5109840;28;20428;-78
2022/01/08 10:02:54;;;;;;;4.10;3.60;;;15.10;55.50;;;;;;5099984;28;20475;-78
2022/01/08 10:05:32;;;;;;;5.30;4.20;;;15.30;55.70;;;;;;5111507;28;20491;-78
2022/01/08 10:08:01;;;;;;;3.90;3.57;;;15.50;55.60;;;;;;5108017;28;20561;-79
2022/01/08 10:10:28;;;;;;;5.00;4.10;;;15.70;55.70;;;;;;5109597;28;20482;-79
2022/01/08 10:12:59;;;;;;;3.87;3.43;;;15.90;55.60;;;;;;5112491;28;20471;-79
2022/01/08 10:18:21;;;;;;;5.13;3.70;;;16.40;55.60;;;;;;5106023;28;20519;-79
2022/01/08 10:20:50;;;;;;;5.30;3.90;;;16.60;55.70;;;;;;5112857;28;20515;-79
2022/01/08 10:23:20;;;;;;;4.70;3.43;;;16.80;55.80;;;;;;5112989;28;20531;-79
2022/01/08 10:25:58;;;;;;;4.13;3.23;;;17.00;55.80;;;;;;5113102;28;20487;-78
2022/01/08 10:28:38;;;;;;;5.40;3.50;;;17.20;55.80;;;;;;5113514;28;20539;-78
2022/01/08 10:31:14;;;;;;;5.07;3.83;;;17.40;55.90;;;;;;5112901;28;20457;-78
2022/01/08 10:33:43;;;;;;;3.90;3.60;;;17.60;56.00;;;;;;5112939;28;20526;-78
2022/01/08 10:36:12;;;;;;;4.20;3.80;;;17.80;56.10;;;;;;5112528;28;20448;-78
2022/01/08 10:38:40;;;;;;;4.87;3.80;;;17.90;56.00;;;;;;5112830;28;20451;-79
2022/01/08 10:41:13;;;;;;;3.50;3.30;;;18.00;55.90;;;;;;5112665;28;20456;-78
2022/01/08 10:43:41;;;;;;;5.43;4.10;;;18.10;55.70;;;;;;5114883;28;20409;-79
2022/01/08 10:46:11;;;;;;;6.13;3.50;;;18.10;55.60;;;;;;5114823;28;20999;-79
2022/01/08 10:48:43;;;;;;;3.93;3.50;;;18.10;55.40;;;;;;5115431;28;20436;-79
2022/01/08 10:51:15;;;;;;;5.17;4.10;;;18.00;55.30;;;;;;5114476;28;20479;-79
2022/01/08 10:53:57;;;;;;;3.67;3.37;;;17.90;55.40;;;;;;5109616;28;20523;-79
2022/01/08 10:56:26;;;;;;;5.20;4.03;;;17.80;55.20;;;;;;5116927;28;20454;-78
2022/01/08 10:58:59;;;;;;;4.67;4.17;;;17.70;55.30;;;;;;5116156;28;20472;-79
2022/01/08 11:01:51;;;;;;;172.57;52.43;;;17.60;55.30;;;;;;5117182;28;20464;-82
2022/01/08 11:04:31;;;;;;;166.97;50.73;;;17.90;58.80;;;;;;5121559;28;20500;-82
2022/01/08 11:07:02;;;;;;;192.90;52.50;;;18.50;58.40;;;;;;5122591;28;20519;-83
2022/01/08 11:09:30;;;;;;;157.47;51.80;;;19.10;57.50;;;;;;5107837;28;20564;-82
2022/01/08 11:11:59;;;;;;;161.03;51.97;;;19.80;57.60;;;;;;5105851;28;20475;-81
2022/01/08 11:17:20;;;;;;;149.00;50.60;;;20.60;58.70;;;;;;5105685;28;20452;-81
2022/01/08 11:19:49;;;;;;;148.33;50.60;;;20.80;59.60;;;;;;5115538;28;20424;-80
2022/01/08 11:22:20;;;;;;;159.13;53.47;;;21.10;58.60;;;;;;5117868;28;20471;-81
2022/01/08 11:24:52;;;;;;;154.17;51.10;;;21.30;57.70;;;;;;5121264;28;20435;-80
2022/01/08 11:27:23;;;;;;;141.37;49.60;;;21.60;57.20;;;;;;5118550;28;20459;-82
2022/01/08 11:29:58;;;;;;;134.27;48.10;;;21.70;56.80;;;;;;5113298;28;20492;-80
2022/01/08 11:32:28;;;;;;;131.07;49.50;;;21.80;56.60;;;;;;5121671;28;20451;-80
2022/01/08 11:34:56;;;;;;;137.73;48.90;;;21.90;56.40;;;;;;5121783;27;20471;-80
2022/01/08 11:37:26;;;;;;;134.13;47.00;;;22.00;56.40;;;;;;5119731;28;20534;-80
2022/01/08 11:39:54;;;;;;;140.33;48.43;;;22.10;56.00;;;;;;5122036;28;20515;-81
2022/01/08 11:42:22;;;;;;;126.30;46.73;;;22.10;55.90;;;;;;5122315;28;20519;-79
2022/01/08 11:44:51;;;;;;;117.37;46.50;;;22.20;56.10;;;;;;5113442;28;20542;-80
2022/01/08 11:47:20;;;;;;;136.50;47.73;;;22.30;56.00;;;;;;5121771;28;20432;-80
2022/01/08 11:49:49;;;;;;;124.00;45.03;;;22.40;56.00;;;;;;5119773;28;20510;-81
2022/01/08 11:52:18;;;;;;;124.90;44.70;;;22.60;56.20;;;;;;5120380;28;20443;-78
2022/01/08 11:54:49;;;;;;;109.63;43.30;;;22.70;56.10;;;;;;5121199;28;20477;-80
2022/01/08 11:57:18;;;;;;;105.83;41.90;;;22.90;56.00;;;;;;5120140;28;20454;-78
2022/01/08 11:59:46;;;;;;;110.30;43.40;;;23.00;55.40;;;;;;5119145;28;20447;-79
2022/01/08 12:02:19;;;;;;;103.57;41.80;;;23.10;55.20;;;;;;5111391;28;20441;-78
2022/01/08 12:04:52;;;;;;;97.93;39.70;;;23.10;55.30;;;;;;5099350;28;20456;-80
2022/01/08 12:07:33;;;;;;;103.33;38.60;;;23.20;55.40;;;;;;5101519;28;20435;-79
2022/01/08 12:10:13;;;;;;;90.27;38.53;;;23.40;55.50;;;;;;5098630;28;21012;-78
2022/01/08 12:12:49;;;;;;;93.03;39.20;;;23.50;55.40;;;;;;5115233;28;20946;-79
2022/01/08 12:15:17;;;;;;;99.77;38.20;;;23.60;55.30;;;;;;5117460;28;20454;-78
2022/01/08 12:17:55;;;;;;;84.30;35.93;;;23.60;54.90;;;;;;5118262;28;20509;-78
2022/01/08 12:20:42;;;;;;;82.13;33.43;;;23.60;54.80;;;;;;5119861;28;20406;-79
2022/01/08 12:23:31;;;;;;;80.60;34.50;;;23.60;54.70;;;;;;5120642;28;20538;-80
2022/01/08 12:26:02;;;;;;;79.47;35.27;;;23.60;54.20;;;;;;5119841;28;20456;-80
2022/01/08 12:28:53;;;;;;;84.97;32.90;;;23.60;54.00;;;;;;5120674;28;20520;-80
2022/01/08 12:31:31;;;;;;;80.80;32.30;;;23.60;53.80;;;;;;5120032;28;20492;-80
2022/01/08 12:34:22;;;;;;;72.70;31.27;;;23.60;53.20;;;;;;5119834;28;20431;-78
2022/01/08 12:36:54;;;;;;;78.30;32.20;;;23.50;53.40;;;;;;5099836;28;20483;-79
2022/01/08 12:39:26;;;;;;;71.83;29.83;;;23.40;53.60;;;;;;5115549;28;20493;-79
2022/01/08 12:42:32;;;;;;;76.70;30.63;;;23.30;53.70;;;;;;5118875;28;20440;-81
2022/01/08 12:45:02;;;;;;;67.20;28.83;;;23.20;53.70;;;;;;5120893;28;20554;-81
2022/01/08 12:47:41;;;;;;;77.97;29.20;;;23.10;53.90;;;;;;5117311;28;20515;-80
2022/01/08 12:50:23;;;;;;;64.33;25.07;;;23.10;54.50;;;;;;5115375;28;20520;-77
2022/01/08 12:53:22;;;;;;;42.67;19.00;;;22.70;51.30;;;;;;5114284;28;20466;-78
2022/01/08 12:56:12;;;;;;;34.37;13.80;;;22.10;50.00;;;;;;5097284;28;20456;-79
2022/01/08 12:58:54;;;;;;;33.77;13.10;;;21.30;49.70;;;;;;5097125;28;20457;-78
2022/01/08 13:01:26;;;;;;;28.37;13.23;;;21.40;50.50;;;;;;5102918;28;20439;-79
2022/01/08 13:03:55;;;;;;;33.50;11.63;;;21.30;51.00;;;;;;5116535;28;20398;-78
2022/01/08 13:06:26;;;;;;;39.47;12.57;;;21.30;51.50;;;;;;5116128;28;20487;-80
2022/01/08 13:08:55;;;;;;;32.33;11.27;;;21.20;52.10;;;;;;5119988;27;20416;-79
2022/01/08 13:11:24;;;;;;;24.60;10.97;;;21.10;52.60;;;;;;5113243;28;20474;-79
2022/01/08 13:13:56;;;;;;;40.33;11.87;;;20.90;53.40;;;;;;5110589;28;20464;-78